Data for 12/28/2014

Time Sea-Level Adjusted Pressure Absolute Pressure Temperature Relative Humidity Dew Point   
(mb) (inHg) (mb) (inHg) (C) (F) (%) (C) (F)
00:05 1013 29.91 843 24.89 -5.1 22.9 71 -9.6 14.7
00:10 1013 29.91 843 24.89 -5.1 22.9 72 -9.4 15
00:15 1013 29.91 842 24.86 -5.1 22.7 73 -9.3 15.3
00:20 1013 29.91 842 24.86 -5.2 22.7 74 -9.1 15.6
00:25 1013 29.91 842 24.86 -5.2 22.7 75 -8.9 15.9
00:30 1013 29.91 842 24.86 -5.3 22.5 77 -8.7 16.3
00:35 1013 29.91 842 24.86 -5.4 22.3 80 -8.4 16.9
00:40 1013 29.91 842 24.86 -5.5 22.1 81 -8.2 17.3
00:45 1013 29.91 842 24.86 -5.6 22 83 -8 17.6
00:50 1013 29.91 842 24.86 -5.7 21.8 85 -7.8 18
00:55 1013 29.91 842 24.86 -5.7 21.7 86 -7.7 18.2
01:00 1013 29.91 842 24.86 -5.8 21.6 87 -7.7 18.2
01:05 1013 29.91 842 24.86 -5.8 21.5 88 -7.6 18.4
01:10 1013 29.91 842 24.86 -5.9 21.4 89 -7.4 18.6
01:15 1013 29.91 842 24.86 -5.9 21.3 90 -7.3 18.8
01:20 1013 29.91 842 24.86 -5.9 21.3 90 -7.3 18.9
01:25 1013 29.91 842 24.86 -6 21.3 90 -7.3 18.9
01:30 1013 29.91 842 24.86 -6 21.2 90 -7.3 18.8
01:35 1013 29.91 842 24.86 -6 21.2 91 -7.3 18.8
01:40 1013 29.91 842 24.86 -6 21.2 91 -7.3 18.8
01:45 1013 29.91 842 24.86 -6 21.1 91 -7.3 18.8
01:50 1013 29.91 842 24.86 -6 21.2 90 -7.4 18.8
01:55 1013 29.91 842 24.86 -6 21.2 90 -7.4 18.8
02:00 1013 29.91 842 24.86 -6 21.2 90 -7.4 18.7
02:05 1013 29.91 842 24.86 -6 21.3 90 -7.4 18.7
02:10 1013 29.91 842 24.86 -5.9 21.4 89 -7.4 18.7
02:15 1013 29.91 842 24.86 -5.9 21.4 89 -7.5 18.6
02:20 1012 29.88 842 24.86 -5.9 21.5 88 -7.6 18.4
02:25 1012 29.88 842 24.86 -5.8 21.5 87 -7.7 18.2
02:30 1012 29.88 842 24.86 -5.7 21.7 86 -7.7 18.1
02:35 1012 29.88 842 24.86 -5.6 21.9 84 -7.9 17.9
02:40 1012 29.88 842 24.86 -5.6 21.9 85 -7.8 18
02:45 1012 29.88 842 24.86 -5.7 21.7 85 -7.9 17.8
02:50 1012 29.88 842 24.86 -5.8 21.6 84 -8.1 17.5
02:55 1012 29.88 841 24.83 -5.7 21.7 83 -8.1 17.3
03:00 1012 29.88 841 24.83 -5.7 21.7 84 -8 17.7
03:05 1012 29.88 841 24.83 -5.7 21.7 85 -7.9 17.9
03:10 1012 29.88 841 24.83 -5.7 21.8 85 -7.8 18
03:15 1012 29.88 841 24.83 -5.8 21.6 86 -7.7 18.1
03:20 1012 29.88 841 24.83 -5.9 21.4 87 -7.8 18
03:25 1012 29.88 841 24.83 -5.9 21.4 87 -7.8 17.9
03:30 1012 29.88 841 24.83 -5.9 21.3 86 -7.9 17.8
03:35 1012 29.88 841 24.83 -5.9 21.4 86 -7.9 17.7
03:40 1012 29.88 841 24.83 -5.8 21.5 85 -7.9 17.8
03:45 1012 29.88 841 24.83 -5.8 21.5 86 -7.9 17.8
03:50 1012 29.88 841 24.83 -5.7 21.8 85 -7.8 17.9
03:55 1012 29.88 841 24.83 -5.7 21.8 85 -7.8 17.9
04:00 1012 29.88 841 24.83 -5.6 22 84 -7.9 17.8
04:05 1012 29.88 841 24.83 -5.5 22.1 84 -7.9 17.9
04:10 1012 29.88 841 24.83 -5.3 22.4 82 -8 17.7
04:15 1012 29.88 841 24.83 -5.3 22.5 82 -7.8 17.9
04:20 1012 29.88 841 24.83 -5.3 22.5 82 -7.9 17.7
04:25 1012 29.88 841 24.83 -5.2 22.6 80 -8.1 17.4
04:30 1012 29.88 841 24.83 -5.2 22.6 78 -8.4 16.8
04:35 1012 29.88 841 24.83 -5.1 22.7 78 -8.3 17
04:40 1012 29.88 841 24.83 -5.2 22.7 79 -8.3 17.1
04:45 1012 29.88 841 24.83 -5.2 22.6 79 -8.4 17
04:50 1012 29.88 841 24.83 -5.2 22.7 79 -8.3 17
04:55 1012 29.88 841 24.83 -5.2 22.7 78 -8.4 16.9
05:00 1012 29.88 841 24.83 -5.1 22.8 78 -8.4 16.9
05:05 1012 29.88 841 24.83 -5.1 22.8 79 -8.2 17.2
05:10 1012 29.88 841 24.83 -5.1 22.8 79 -8.3 17.1
05:15 1012 29.88 841 24.83 -5.1 22.7 79 -8.3 17.1
05:20 1012 29.88 841 24.83 -5.2 22.7 79 -8.2 17.2
05:25 1012 29.88 841 24.83 -5.1 22.8 79 -8.2 17.2
05:30 1012 29.88 841 24.83 -5.1 22.9 78 -8.3 17
05:35 1012 29.88 841 24.83 -4.9 23.2 77 -8.3 17.1
05:40 1012 29.88 841 24.83 -4.8 23.4 78 -8.1 17.4
05:45 1012 29.88 841 24.83 -4.8 23.3 81 -7.5 18.5
05:50 1012 29.88 841 24.83 -4.9 23.1 84 -7.3 18.8
05:55 1012 29.88 841 24.83 -4.9 23.2 85 -7.1 19.2
06:00 1012 29.88 841 24.83 -5.2 22.7 87 -7 19.4
06:05 1012 29.88 841 24.83 -5.4 22.2 89 -7 19.4
06:10 1012 29.88 841 24.83 -5.6 21.9 90 -7 19.5
06:15 1012 29.88 841 24.83 -5.6 22 91 -6.8 19.7
06:20 1012 29.88 841 24.83 -5.6 22 91 -6.8 19.8
06:25 1012 29.88 841 24.83 -5.5 22.1 91 -6.8 19.8
06:30 1012 29.88 841 24.83 -5.5 22.1 91 -6.8 19.8
06:35 1012 29.88 841 24.83 -5.5 22 91 -6.8 19.8
06:40 1012 29.88 841 24.83 -5.5 22 91 -6.8 19.7
06:45 1012 29.88 841 24.83 -5.6 21.9 91 -6.8 19.8
06:50 1012 29.88 841 24.83 -5.6 21.9 91 -6.8 19.7
06:55 1012 29.88 841 24.83 -5.6 22 91 -6.8 19.8
07:00 1012 29.88 841 24.83 -5.4 22.2 91 -6.7 19.9
07:05 1012 29.88 841 24.83 -5.4 22.2 90 -6.8 19.8
07:10 1012 29.88 841 24.83 -5.4 22.2 90 -6.8 19.8
07:15 1012 29.88 841 24.83 -5.4 22.2 91 -6.7 19.9
07:20 1012 29.88 841 24.83 -5.4 22.2 90 -6.8 19.8
07:25 1012 29.88 841 24.83 -5.4 22.2 90 -6.8 19.8
07:30 1012 29.88 841 24.83 -5.3 22.4 90 -6.7 19.9
07:35 1012 29.88 841 24.83 -5.2 22.7 89 -6.7 19.9
07:40 1012 29.88 841 24.83 -5.2 22.7 88 -6.8 19.7
07:45 1012 29.88 841 24.83 -5 22.9 87 -6.9 19.6
07:50 1012 29.88 841 24.83 -5 23 87 -6.8 19.7
07:55 1012 29.88 841 24.83 -5.1 22.8 88 -6.8 19.8
08:00 1012 29.88 841 24.83 -5.3 22.5 89 -6.8 19.7
08:05 1012 29.88 841 24.83 -5.3 22.5 89 -6.9 19.6
08:10 1012 29.88 841 24.83 -5.3 22.5 89 -6.8 19.7
08:15 1012 29.88 841 24.83 -5.3 22.5 89 -6.9 19.6
08:20 1012 29.88 841 24.83 -5.2 22.6 88 -6.8 19.7
08:25 1012 29.88 841 24.83 -5.2 22.6 87 -7 19.4
08:30 1012 29.88 841 24.83 -5.2 22.7 85 -7.3 18.8
08:35 1012 29.88 842 24.86 -5.1 22.8 82 -7.6 18.2
08:40 1012 29.88 842 24.86 -5 23 86 -7 19.4
08:45 1012 29.88 842 24.86 -5.2 22.7 85 -7.4 18.8
08:50 1012 29.88 842 24.86 -5.1 22.8 84 -7.4 18.6
08:55 1012 29.88 842 24.86 -5.1 22.8 85 -7.2 19
09:00 1012 29.88 842 24.86 -5.3 22.5 86 -7.2 19
09:05 1013 29.91 842 24.86 -5.3 22.4 86 -7.3 18.8
09:10 1013 29.91 842 24.86 -5.3 22.4 86 -7.3 18.8
09:15 1013 29.91 842 24.86 -5.3 22.5 85 -7.4 18.6
09:20 1013 29.91 842 24.86 -5.2 22.6 84 -7.6 18.4
09:25 1013 29.91 842 24.86 -5.1 22.8 83 -7.6 18.3
09:30 1013 29.91 842 24.86 -5 23 83 -7.5 18.5
09:35 1013 29.91 842 24.86 -5 23.1 82 -7.6 18.2
09:40 1013 29.91 842 24.86 -4.9 23.2 81 -7.7 18.2
09:45 1013 29.91 842 24.86 -4.9 23.2 80 -7.8 18
09:50 1013 29.91 842 24.86 -4.8 23.4 79 -7.9 17.8
09:55 1013 29.91 842 24.86 -4.7 23.6 78 -7.9 17.7
10:00 1013 29.91 842 24.86 -4.4 24.1 76 -8 17.6
10:05 1013 29.91 842 24.86 -4.3 24.3 71 -8.7 16.3
10:10 1013 29.91 843 24.89 -4.1 24.7 71 -8.5 16.7
10:15 1013 29.91 843 24.89 -3.9 25 75 -7.7 18.1
10:20 1014 29.94 843 24.89 -3.9 24.9 80 -7 19.5
10:25 1014 29.94 843 24.89 -4 24.7 81 -6.9 19.6
10:30 1014 29.94 843 24.89 -4.1 24.6 83 -6.6 20.1
10:35 1014 29.94 843 24.89 -4.1 24.6 84 -6.5 20.3
10:40 1014 29.94 843 24.89 -4.2 24.5 84 -6.5 20.4
10:45 1014 29.94 843 24.89 -4.3 24.3 85 -6.5 20.4
10:50 1014 29.94 843 24.89 -4.2 24.4 85 -6.5 20.4
10:55 1014 29.94 843 24.89 -4.1 24.5 84 -6.4 20.4
11:00 1014 29.94 843 24.89 -4.3 24.2 86 -6.4 20.5
11:05 1014 29.94 843 24.89 -4.7 23.5 88 -6.5 20.3
11:10 1014 29.94 843 24.89 -4.8 23.4 88 -6.4 20.4
11:15 1014 29.94 843 24.89 -5.1 22.9 90 -6.5 20.3
11:20 1014 29.94 843 24.89 -5.2 22.7 90 -6.5 20.2
11:25 1014 29.94 843 24.89 -5.1 22.9 90 -6.5 20.2
11:30 1014 29.94 844 24.92 -5 22.9 90 -6.5 20.3
11:35 1014 29.94 844 24.92 -4.9 23.1 89 -6.4 20.5
11:40 1014 29.94 844 24.92 -4.8 23.4 89 -6.3 20.7
11:45 1014 29.94 844 24.92 -4.8 23.4 90 -6.2 20.8
11:50 1014 29.94 844 24.92 -4.8 23.4 90 -6.1 21
11:55 1014 29.94 844 24.92 -4.5 23.8 89 -6.1 21.1
12:00 1014 29.94 844 24.92 -4.4 24 89 -6 21.3
12:05 1014 29.94 844 24.92 -4.1 24.6 88 -5.8 21.6
12:10 1014 29.94 844 24.92 -4 24.8 87 -5.8 21.5
12:15 1014 29.94 844 24.92 -3.9 25.1 86 -5.8 21.5
12:20 1014 29.94 844 24.92 -3.9 24.9 87 -5.9 21.5
12:25 1014 29.94 843 24.89 -3.9 25 85 -6 21.3
12:30 1014 29.94 843 24.89 -3.7 25.4 85 -5.8 21.6
12:35 1014 29.94 843 24.89 -3.3 26 84 -5.7 21.8
12:40 1014 29.94 843 24.89 -2.9 26.8 81 -5.7 21.8
12:45 1014 29.94 843 24.89 -2.8 27 82 -5.4 22.2
12:50 1014 29.94 843 24.89 -2.8 26.9 81 -5.7 21.8
12:55 1014 29.94 843 24.89 -2.7 27.2 81 -5.6 22
13:00 1014 29.94 843 24.89 -2.5 27.5 79 -5.7 21.7
13:05 1014 29.94 843 24.89 -2.8 27 80 -5.7 21.7
13:10 1014 29.94 844 24.92 -2.5 27.4 80 -5.6 21.9
13:15 1014 29.94 844 24.92 -2.1 28.2 76 -5.7 21.7
13:20 1014 29.94 844 24.92 -2.1 28.1 77 -5.7 21.8
13:25 1014 29.94 844 24.92 -2.3 27.9 78 -5.7 21.8
13:30 1014 29.94 844 24.92 -2.1 28.2 77 -5.7 21.8
13:35 1014 29.94 844 24.92 -2.1 28.2 76 -5.8 21.6
13:40 1014 29.94 844 24.92 -2.2 28 78 -5.6 22
13:45 1014 29.94 844 24.92 -2.1 28.3 77 -5.7 21.8
13:50 1014 29.94 844 24.92 -2.2 28.1 78 -5.5 22.1
13:55 1014 29.94 844 24.92 -2.2 28.1 77 -5.7 21.7
14:00 1014 29.94 844 24.92 -2.1 28.2 76 -5.7 21.8
14:05 1014 29.94 844 24.92 -2.1 28.2 78 -5.5 22.2
14:10 1014 29.94 844 24.92 -2.3 27.9 78 -5.6 22
14:15 1015 29.97 844 24.92 -2.4 27.6 78 -5.7 21.8
14:20 1015 29.97 844 24.92 -2.4 27.6 77 -5.9 21.4
14:25 1015 29.97 844 24.92 -2.6 27.4 78 -5.9 21.4
14:30 1014 29.94 844 24.92 -2.8 27 79 -5.9 21.3
14:35 1015 29.97 844 24.92 -2.9 26.8 79 -5.9 21.3
14:40 1015 29.97 844 24.92 -2.8 26.9 81 -5.7 21.8
14:45 1015 29.97 844 24.92 -2.8 26.9 81 -5.6 22
14:50 1015 29.97 844 24.92 -2.9 26.7 82 -5.5 22
14:55 1015 29.97 844 24.92 -2.8 26.9 82 -5.6 22
15:00 1015 29.97 844 24.92 -3 26.6 83 -5.4 22.2
15:05 1015 29.97 844 24.92 -3.1 26.5 82 -5.7 21.7
15:10 1015 29.97 844 24.92 -3.3 26.1 83 -5.7 21.7
15:15 1015 29.97 844 24.92 -3.4 25.9 82 -6.1 21.1
15:20 1015 29.97 844 24.92 -3.9 25 83 -6.3 20.6
15:25 1015 29.97 844 24.92 -4.3 24.2 84 -6.7 20
15:30 1015 29.97 844 24.92 -4.6 23.6 85 -6.9 19.6
15:35 1015 29.97 844 24.92 -4.8 23.4 83 -7.2 19.1
15:40 1015 29.97 844 24.92 -5.2 22.7 85 -7.3 18.8
15:45 1015 29.97 844 24.92 -5.4 22.3 85 -7.5 18.6
15:50 1015 29.97 845 24.95 -5.4 22.2 85 -7.6 18.4
15:55 1015 29.97 845 24.95 -5.6 21.9 85 -7.7 18.1
16:00 1015 29.97 845 24.95 -5.8 21.6 84 -8 17.5
16:05 1016 30 845 24.95 -6.1 21 84 -8.4 16.9
16:10 1016 30 845 24.95 -6.2 20.8 83 -8.6 16.5
16:15 1016 30 845 24.95 -6.5 20.3 84 -8.7 16.4
16:20 1016 30 845 24.95 -6.5 20.2 85 -8.7 16.4
16:25 1016 30 845 24.95 -6.6 20.1 85 -8.7 16.4
16:30 1016 30 845 24.95 -6.8 19.7 86 -8.8 16.1
16:35 1016 30 845 24.95 -6.9 19.5 86 -8.8 16.1
16:40 1016 30 845 24.95 -7 19.4 86 -8.9 15.9
16:45 1016 30 845 24.95 -7.2 19 86 -9.1 15.6
16:50 1016 30 846 24.98 -7.4 18.6 87 -9.3 15.3
16:55 1016 30 846 24.98 -7.5 18.6 87 -9.3 15.2
17:00 1017 30.03 846 24.98 -7.7 18.1 87 -9.5 14.9
17:05 1017 30.03 846 24.98 -7.7 18.1 87 -9.6 14.8
17:10 1017 30.03 846 24.98 -7.8 18 86 -9.8 14.4
17:15 1017 30.03 846 24.98 -7.9 17.8 86 -9.9 14.2
17:20 1017 30.03 846 24.98 -8.1 17.5 86 -10 13.9
17:25 1017 30.03 846 24.98 -8.2 17.3 85 -10.2 13.6
17:30 1017 30.03 846 24.98 -8.3 17.1 86 -10.3 13.5
17:35 1017 30.03 846 24.98 -8.3 17.1 85 -10.3 13.4
17:40 1017 30.03 846 24.98 -8.2 17.2 86 -10.2 13.6
17:45 1017 30.03 846 24.98 -8.3 17.1 86 -10.2 13.7
17:50 1017 30.03 847 25.01 -8.3 17.1 87 -10.1 13.8
17:55 1018 30.06 847 25.01 -8.5 16.8 86 -10.4 13.3
18:00 1018 30.06 847 25.01 -8.5 16.7 87 -10.3 13.5
18:05 1018 30.06 847 25.01 -8.5 16.6 86 -10.4 13.2
18:10 1018 30.06 847 25.01 -8.6 16.4 87 -10.5 13.2
18:15 1018 30.06 847 25.01 -8.7 16.4 87 -10.4 13.2
18:20 1018 30.06 847 25.01 -8.8 16.2 88 -10.5 13.2
18:25 1018 30.06 847 25.01 -8.8 16.1 88 -10.5 13.1
18:30 1018 30.06 847 25.01 -8.9 16 88 -10.5 13.1
18:35 1018 30.06 847 25.01 -9 15.9 89 -10.5 13.1
18:40 1018 30.06 848 25.04 -8.9 15.9 88 -10.6 13
18:45 1018 30.06 848 25.04 -9 15.9 89 -10.5 13.1
18:50 1018 30.06 848 25.04 -8.9 16 89 -10.4 13.3
18:55 1019 30.09 848 25.04 -8.9 16 89 -10.4 13.2
19:00 1019 30.09 848 25.04 -9 15.8 89 -10.6 13
19:05 1019 30.09 848 25.04 -9.1 15.7 89 -10.6 12.9
19:10 1019 30.09 848 25.04 -9.1 15.6 88 -10.7 12.7
19:15 1019 30.09 848 25.04 -9.3 15.3 89 -10.8 12.5
19:20 1019 30.09 848 25.04 -9.2 15.4 89 -10.7 12.8
19:25 1019 30.09 848 25.04 -9.2 15.5 89 -10.7 12.7
19:30 1019 30.09 848 25.04 -9.4 15.2 89 -10.9 12.5
19:35 1019 30.09 848 25.04 -9.4 15 89 -10.9 12.4
19:40 1019 30.09 848 25.04 -9.4 15.1 88 -11 12.2
19:45 1019 30.09 849 25.07 -9.4 15.1 89 -10.9 12.3
19:50 1019 30.09 849 25.07 -9.4 15 88 -11.1 12
19:55 1019 30.09 849 25.07 -9.7 14.6 88 -11.3 11.6
20:00 1019 30.09 849 25.07 -9.7 14.5 87 -11.4 11.4
20:05 1020 30.12 849 25.07 -9.9 14.3 87 -11.7 11
20:10 1020 30.12 849 25.07 -10 14 87 -11.8 10.8
20:15 1020 30.12 849 25.07 -10.1 13.8 88 -11.7 10.9
20:20 1020 30.12 849 25.07 -10.1 13.8 88 -11.7 10.9
20:25 1020 30.12 849 25.07 -10.2 13.7 87 -11.9 10.6
20:30 1020 30.12 849 25.07 -10.2 13.6 86 -12.1 10.2
20:35 1020 30.12 849 25.07 -10.3 13.4 86 -12.3 9.9
20:40 1020 30.12 849 25.07 -10.4 13.2 86 -12.3 9.8
20:45 1020 30.12 849 25.07 -10.5 13.1 86 -12.4 9.6
20:50 1020 30.12 849 25.07 -10.5 13 86 -12.4 9.7
20:55 1020 30.12 849 25.07 -10.6 13 86 -12.4 9.6
21:00 1020 30.12 849 25.07 -10.7 12.7 85 -12.7 9.1
21:05 1020 30.12 849 25.07 -10.8 12.5 87 -12.6 9.3
21:10 1020 30.12 849 25.07 -10.9 12.4 85 -12.9 8.8
21:15 1020 30.12 849 25.07 -10.7 12.7 83 -13.1 8.4
21:20 1020 30.12 849 25.07 -10.9 12.4 84 -13.1 8.5
21:25 1020 30.12 849 25.07 -11 12.2 85 -13.1 8.5
21:30 1020 30.12 850 25.1 -10.9 12.3 84 -13.1 8.5
21:35 1020 30.12 850 25.1 -11 12.1 84 -13.3 8.1
21:40 1020 30.12 850 25.1 -11.2 11.9 84 -13.3 8
21:45 1020 30.12 850 25.1 -11.3 11.8 83 -13.5 7.6
21:50 1021 30.15 850 25.1 -11.3 11.6 83 -13.6 7.5
21:55 1021 30.15 850 25.1 -11.3 11.8 84 -13.4 7.8
22:00 1021 30.15 850 25.1 -11 12.1 81 -13.6 7.5
22:05 1021 30.15 850 25.1 -11.1 12 81 -13.7 7.3
22:10 1021 30.15 850 25.1 -11.1 12 80 -14 6.9
22:15 1021 30.15 850 25.1 -10.6 12.8 76 -14.1 6.6
22:20 1021 30.15 850 25.1 -10.5 13.2 76 -14 6.8
22:25 1021 30.15 850 25.1 -10.4 13.2 75 -14.1 6.7
22:30 1021 30.15 850 25.1 -10.4 13.2 74 -14.3 6.3
22:35 1021 30.15 850 25.1 -10.5 13.2 74 -14.3 6.2
22:40 1021 30.15 850 25.1 -10.5 13.1 73 -14.4 6.1
22:45 1021 30.15 850 25.1 -10.6 13 73 -14.5 5.9
22:50 1021 30.15 850 25.1 -10.6 13 73 -14.5 6
22:55 1021 30.15 850 25.1 -10.6 12.9 74 -14.4 6.1
23:00 1021 30.15 850 25.1 -10.7 12.8 74 -14.5 5.9
23:05 1021 30.15 850 25.1 -10.7 12.8 74 -14.5 5.8
23:10 1021 30.15 850 25.1 -10.7 12.7 74 -14.5 5.8
23:15 1021 30.15 850 25.1 -10.7 12.8 75 -14.3 6.2
23:20 1021 30.15 851 25.13 -10.8 12.6 75 -14.4 6
23:25 1021 30.15 851 25.13 -10.8 12.6 74 -14.6 5.8
23:30 1021 30.15 851 25.13 -10.8 12.6 74 -14.6 5.7
23:35 1021 30.15 851 25.13 -10.8 12.6 74 -14.7 5.6
23:40 1022 30.18 851 25.13 -10.8 12.5 74 -14.6 5.7
23:45 1022 30.18 851 25.13 -10.9 12.3 74 -14.7 5.5
23:50 1022 30.18 851 25.13 -11 12.2 74 -14.7 5.5
23:55 1022 30.18 851 25.13 -11.1 12.1 73 -15 5
24:00 1022 30.18 851 25.13 -11.1 12.1 72 -15.1 4.8